sensor_id;sensor_type;location;lat;lon;timestamp;pressure;altitude;pressure_sealevel;temperature;humidity
6694;BME280;3384;42.628;23.380;2022-11-02T00:02:17;94856.63;;;12.84;98.65
6694;BME280;3384;42.628;23.380;2022-11-02T00:04:44;94852.34;;;12.96;96.83
6694;BME280;3384;42.628;23.380;2022-11-02T00:07:11;94856.94;;;13.09;95.46
6694;BME280;3384;42.628;23.380;2022-11-02T00:09:38;94852.97;;;13.07;94.46
6694;BME280;3384;42.628;23.380;2022-11-02T00:12:06;94849.16;;;13.08;93.93
6694;BME280;3384;42.628;23.380;2022-11-02T00:14:33;94866.22;;;13.03;93.48
6694;BME280;3384;42.628;23.380;2022-11-02T00:17:00;94860.34;;;13.01;92.83
6694;BME280;3384;42.628;23.380;2022-11-02T00:19:28;94856.06;;;13.00;93.76
6694;BME280;3384;42.628;23.380;2022-11-02T00:21:55;94846.88;;;13.01;93.47
6694;BME280;3384;42.628;23.380;2022-11-02T00:24:23;94858.50;;;12.97;93.34
6694;BME280;3384;42.628;23.380;2022-11-02T00:26:50;94857.44;;;12.84;93.31
6694;BME280;3384;42.628;23.380;2022-11-02T00:29:18;94855.25;;;12.86;93.81
6694;BME280;3384;42.628;23.380;2022-11-02T00:31:45;94855.13;;;12.51;96.22
6694;BME280;3384;42.628;23.380;2022-11-02T00:34:12;94848.34;;;12.94;93.76
6694;BME280;3384;42.628;23.380;2022-11-02T00:36:39;94846.47;;;12.81;94.46
6694;BME280;3384;42.628;23.380;2022-11-02T00:39:06;94858.72;;;12.87;95.12
6694;BME280;3384;42.628;23.380;2022-11-02T00:41:32;94848.75;;;12.47;100.00
6694;BME280;3384;42.628;23.380;2022-11-02T00:43:59;94850.81;;;12.36;100.00
6694;BME280;3384;42.628;23.380;2022-11-02T00:46:27;94859.97;;;12.22;100.00
6694;BME280;3384;42.628;23.380;2022-11-02T00:48:54;94843.84;;;12.35;100.00
6694;BME280;3384;42.628;23.380;2022-11-02T00:51:21;94844.84;;;12.26;100.00
6694;BME280;3384;42.628;23.380;2022-11-02T00:53:47;94841.25;;;12.30;100.00
6694;BME280;3384;42.628;23.380;2022-11-02T00:56:14;94837.06;;;12.24;100.00
6694;BME280;3384;42.628;23.380;2022-11-02T00:58:41;94835.69;;;12.27;100.00
6694;BME280;3384;42.628;23.380;2022-11-02T01:01:09;94835.31;;;12.47;100.00
6694;BME280;3384;42.628;23.380;2022-11-02T01:03:38;94841.88;;;12.41;100.00
6694;BME280;3384;42.628;23.380;2022-11-02T01:06:09;94842.69;;;12.09;100.00
6694;BME280;3384;42.628;23.380;2022-11-02T01:08:36;94849.34;;;11.98;100.00
6694;BME280;3384;42.628;23.380;2022-11-02T01:11:14;94843.34;;;12.20;100.00
6694;BME280;3384;42.628;23.380;2022-11-02T01:13:41;94833.88;;;12.22;100.00
6694;BME280;3384;42.628;23.380;2022-11-02T01:16:08;94840.94;;;12.18;100.00
6694;BME280;3384;42.628;23.380;2022-11-02T01:18:35;94837.31;;;11.96;100.00
6694;BME280;3384;42.628;23.380;2022-11-02T01:21:05;94831.91;;;11.82;100.00
6694;BME280;3384;42.628;23.380;2022-11-02T01:23:32;94847.22;;;11.82;100.00
6694;BME280;3384;42.628;23.380;2022-11-02T01:26:01;94849.06;;;12.00;100.00
6694;BME280;3384;42.628;23.380;2022-11-02T01:28:29;94844.91;;;12.21;100.00
6694;BME280;3384;42.628;23.380;2022-11-02T01:30:55;94845.66;;;12.40;100.00
6694;BME280;3384;42.628;23.380;2022-11-02T01:33:23;94841.47;;;12.34;100.00
6694;BME280;3384;42.628;23.380;2022-11-02T01:35:50;94841.16;;;12.35;100.00
6694;BME280;3384;42.628;23.380;2022-11-02T01:38:18;94837.19;;;12.46;100.00
6694;BME280;3384;42.628;23.380;2022-11-02T01:40:46;94831.22;;;12.49;100.00
6694;BME280;3384;42.628;23.380;2022-11-02T01:43:24;94834.09;;;12.53;99.98
6694;BME280;3384;42.628;23.380;2022-11-02T01:45:54;94833.81;;;12.54;99.62
6694;BME280;3384;42.628;23.380;2022-11-02T01:48:27;94829.72;;;12.30;100.00
6694;BME280;3384;42.628;23.380;2022-11-02T01:50:55;94821.47;;;12.40;100.00
6694;BME280;3384;42.628;23.380;2022-11-02T01:53:24;94830.41;;;12.35;100.00
6694;BME280;3384;42.628;23.380;2022-11-02T01:55:51;94824.63;;;12.28;100.00
6694;BME280;3384;42.628;23.380;2022-11-02T01:58:17;94821.25;;;12.36;100.00
6694;BME280;3384;42.628;23.380;2022-11-02T02:00:44;94824.06;;;12.31;100.00
6694;BME280;3384;42.628;23.380;2022-11-02T02:03:14;94823.94;;;12.36;100.00
6694;BME280;3384;42.628;23.380;2022-11-02T02:05:45;94815.47;;;12.29;100.00
6694;BME280;3384;42.628;23.380;2022-11-02T02:08:16;94825.34;;;12.20;100.00
6694;BME280;3384;42.628;23.380;2022-11-02T02:10:45;94825.81;;;12.22;100.00
6694;BME280;3384;42.628;23.380;2022-11-02T02:13:12;94826.16;;;12.34;100.00
6694;BME280;3384;42.628;23.380;2022-11-02T02:15:44;94817.06;;;12.30;100.00
6694;BME280;3384;42.628;23.380;2022-11-02T02:18:19;94819.75;;;12.30;100.00
6694;BME280;3384;42.628;23.380;2022-11-02T02:21:07;94819.38;;;11.91;100.00
6694;BME280;3384;42.628;23.380;2022-11-02T02:24:10;94818.09;;;12.02;100.00
6694;BME280;3384;42.628;23.380;2022-11-02T02:27:01;94821.31;;;12.04;100.00
6694;BME280;3384;42.628;23.380;2022-11-02T02:29:37;94810.44;;;11.96;100.00
6694;BME280;3384;42.628;23.380;2022-11-02T02:32:12;94812.91;;;11.92;100.00
6694;BME280;3384;42.628;23.380;2022-11-02T02:34:48;94806.25;;;11.90;100.00
6694;BME280;3384;42.628;23.380;2022-11-02T02:37:21;94807.19;;;12.12;100.00
6694;BME280;3384;42.628;23.380;2022-11-02T02:39:56;94808.59;;;12.23;100.00
6694;BME280;3384;42.628;23.380;2022-11-02T02:42:30;94809.75;;;12.04;100.00
6694;BME280;3384;42.628;23.380;2022-11-02T02:45:05;94810.09;;;12.16;100.00
6694;BME280;3384;42.628;23.380;2022-11-02T02:47:38;94806.81;;;12.19;100.00
6694;BME280;3384;42.628;23.380;2022-11-02T02:50:13;94818.28;;;12.24;100.00
6694;BME280;3384;42.628;23.380;2022-11-02T02:52:43;94797.75;;;12.28;99.57
6694;BME280;3384;42.628;23.380;2022-11-02T02:55:15;94812.06;;;12.10;100.00
6694;BME280;3384;42.628;23.380;2022-11-02T02:57:43;94806.38;;;11.98;100.00
6694;BME280;3384;42.628;23.380;2022-11-02T03:00:14;94808.09;;;11.76;100.00
6694;BME280;3384;42.628;23.380;2022-11-02T03:02:42;94807.50;;;11.79;100.00
6694;BME280;3384;42.628;23.380;2022-11-02T03:05:29;94792.75;;;11.95;100.00
6694;BME280;3384;42.628;23.380;2022-11-02T03:08:00;94804.44;;;12.31;100.00
6694;BME280;3384;42.628;23.380;2022-11-02T03:10:32;94802.38;;;11.96;100.00
6694;BME280;3384;42.628;23.380;2022-11-02T03:13:08;94808.91;;;11.76;100.00
6694;BME280;3384;42.628;23.380;2022-11-02T03:15:40;94807.91;;;11.72;100.00
6694;BME280;3384;42.628;23.380;2022-11-02T03:18:15;94807.91;;;11.54;100.00
6694;BME280;3384;42.628;23.380;2022-11-02T03:20:54;94820.22;;;11.36;100.00
6694;BME280;3384;42.628;23.380;2022-11-02T03:23:28;94817.53;;;11.55;100.00
6694;BME280;3384;42.628;23.380;2022-11-02T03:26:02;94829.91;;;11.37;100.00
6694;BME280;3384;42.628;23.380;2022-11-02T03:28:41;94811.47;;;11.68;100.00
6694;BME280;3384;42.628;23.380;2022-11-02T03:31:14;94814.94;;;11.68;100.00
6694;BME280;3384;42.628;23.380;2022-11-02T03:33:46;94821.81;;;11.56;100.00
6694;BME280;3384;42.628;23.380;2022-11-02T03:36:18;94817.09;;;11.48;100.00
6694;BME280;3384;42.628;23.380;2022-11-02T03:38:48;94824.00;;;10.98;100.00
6694;BME280;3384;42.628;23.380;2022-11-02T03:41:17;94816.28;;;10.73;100.00
6694;BME280;3384;42.628;23.380;2022-11-02T03:43:47;94818.75;;;10.88;100.00
6694;BME280;3384;42.628;23.380;2022-11-02T03:46:17;94805.59;;;11.10;100.00
6694;BME280;3384;42.628;23.380;2022-11-02T03:48:47;94814.50;;;10.87;100.00
6694;BME280;3384;42.628;23.380;2022-11-02T03:51:17;94811.03;;;11.23;100.00
6694;BME280;3384;42.628;23.380;2022-11-02T03:53:48;94809.88;;;11.11;100.00
6694;BME280;3384;42.628;23.380;2022-11-02T03:56:24;94804.75;;;11.14;100.00
6694;BME280;3384;42.628;23.380;2022-11-02T03:58:52;94806.38;;;11.10;100.00
6694;BME280;3384;42.628;23.380;2022-11-02T04:01:20;94809.72;;;11.21;100.00
6694;BME280;3384;42.628;23.380;2022-11-02T04:03:47;94812.13;;;11.23;100.00
6694;BME280;3384;42.628;23.380;2022-11-02T04:06:14;94806.56;;;11.00;100.00
6694;BME280;3384;42.628;23.380;2022-11-02T04:08:43;94811.03;;;11.05;100.00
6694;BME280;3384;42.628;23.380;2022-11-02T04:11:11;94799.88;;;11.16;100.00
6694;BME280;3384;42.628;23.380;2022-11-02T04:13:55;94811.75;;;10.92;100.00
6694;BME280;3384;42.628;23.380;2022-11-02T04:16:41;94812.13;;;10.62;100.00
6694;BME280;3384;42.628;23.380;2022-11-02T04:19:08;94805.69;;;10.63;100.00
6694;BME280;3384;42.628;23.380;2022-11-02T04:21:52;94798.56;;;10.53;100.00
6694;BME280;3384;42.628;23.380;2022-11-02T04:24:37;94800.06;;;10.83;100.00
6694;BME280;3384;42.628;23.380;2022-11-02T04:27:21;94800.94;;;10.97;100.00
6694;BME280;3384;42.628;23.380;2022-11-02T04:29:48;94804.44;;;11.16;100.00
6694;BME280;3384;42.628;23.380;2022-11-02T04:32:16;94808.72;;;10.98;100.00
6694;BME280;3384;42.628;23.380;2022-11-02T04:35:05;94806.09;;;11.12;100.00
6694;BME280;3384;42.628;23.380;2022-11-02T04:37:31;94813.56;;;11.15;100.00
6694;BME280;3384;42.628;23.380;2022-11-02T04:40:20;94821.84;;;11.18;100.00
6694;BME280;3384;42.628;23.380;2022-11-02T04:42:46;94814.81;;;11.04;100.00
6694;BME280;3384;42.628;23.380;2022-11-02T04:45:13;94818.72;;;11.11;100.00
6694;BME280;3384;42.628;23.380;2022-11-02T04:47:41;94807.56;;;11.04;100.00
6694;BME280;3384;42.628;23.380;2022-11-02T04:50:09;94816.25;;;11.15;100.00
6694;BME280;3384;42.628;23.380;2022-11-02T04:52:36;94819.78;;;11.10;100.00
6694;BME280;3384;42.628;23.380;2022-11-02T04:55:03;94817.78;;;11.21;100.00
6694;BME280;3384;42.628;23.380;2022-11-02T04:57:30;94820.19;;;11.23;100.00
6694;BME280;3384;42.628;23.380;2022-11-02T04:59:56;94818.97;;;11.47;100.00
6694;BME280;3384;42.628;23.380;2022-11-02T05:02:23;94817.91;;;11.48;100.00
6694;BME280;3384;42.628;23.380;2022-11-02T05:04:51;94815.72;;;11.50;100.00
6694;BME280;3384;42.628;23.380;2022-11-02T05:07:18;94804.41;;;11.53;100.00
6694;BME280;3384;42.628;23.380;2022-11-02T05:09:45;94821.19;;;11.64;100.00
6694;BME280;3384;42.628;23.380;2022-11-02T05:12:12;94821.22;;;11.77;100.00
6694;BME280;3384;42.628;23.380;2022-11-02T05:14:39;94826.41;;;11.55;100.00
6694;BME280;3384;42.628;23.380;2022-11-02T05:17:05;94834.31;;;11.65;100.00
6694;BME280;3384;42.628;23.380;2022-11-02T05:19:32;94838.81;;;11.51;100.00
6694;BME280;3384;42.628;23.380;2022-11-02T05:22:00;94839.31;;;11.35;100.00
6694;BME280;3384;42.628;23.380;2022-11-02T05:24:27;94838.38;;;11.44;100.00
6694;BME280;3384;42.628;23.380;2022-11-02T05:26:54;94839.97;;;11.45;100.00
6694;BME280;3384;42.628;23.380;2022-11-02T05:29:21;94840.09;;;11.54;100.00
6694;BME280;3384;42.628;23.380;2022-11-02T05:31:47;94848.59;;;11.42;100.00
6694;BME280;3384;42.628;23.380;2022-11-02T05:34:14;94840.13;;;11.35;100.00
6694;BME280;3384;42.628;23.380;2022-11-02T05:36:41;94847.78;;;11.42;100.00
6694;BME280;3384;42.628;23.380;2022-11-02T05:39:10;94847.72;;;11.47;100.00
6694;BME280;3384;42.628;23.380;2022-11-02T05:41:39;94844.91;;;11.57;100.00
6694;BME280;3384;42.628;23.380;2022-11-02T05:44:06;94846.56;;;11.71;100.00
6694;BME280;3384;42.628;23.380;2022-11-02T05:46:33;94862.75;;;11.66;100.00
6694;BME280;3384;42.628;23.380;2022-11-02T05:49:00;94852.88;;;11.62;100.00
6694;BME280;3384;42.628;23.380;2022-11-02T05:51:27;94859.19;;;11.89;100.00
6694;BME280;3384;42.628;23.380;2022-11-02T05:53:54;94860.06;;;11.66;100.00
6694;BME280;3384;42.628;23.380;2022-11-02T05:56:22;94864.78;;;11.74;100.00
6694;BME280;3384;42.628;23.380;2022-11-02T05:58:48;94873.59;;;11.61;100.00
6694;BME280;3384;42.628;23.380;2022-11-02T06:01:15;94875.59;;;11.69;100.00
6694;BME280;3384;42.628;23.380;2022-11-02T06:03:42;94871.16;;;11.78;100.00
6694;BME280;3384;42.628;23.380;2022-11-02T06:06:09;94887.06;;;11.75;100.00
6694;BME280;3384;42.628;23.380;2022-11-02T06:08:39;94884.59;;;11.41;100.00
6694;BME280;3384;42.628;23.380;2022-11-02T06:11:07;94882.53;;;11.52;100.00
6694;BME280;3384;42.628;23.380;2022-11-02T06:13:38;94890.47;;;11.80;100.00
6694;BME280;3384;42.628;23.380;2022-11-02T06:16:07;94893.41;;;11.60;100.00
6694;BME280;3384;42.628;23.380;2022-11-02T06:18:35;94891.53;;;11.61;100.00
6694;BME280;3384;42.628;23.380;2022-11-02T06:21:04;94883.25;;;11.57;100.00
6694;BME280;3384;42.628;23.380;2022-11-02T06:23:31;94887.63;;;11.53;100.00
6694;BME280;3384;42.628;23.380;2022-11-02T06:25:59;94885.75;;;11.54;100.00
6694;BME280;3384;42.628;23.380;2022-11-02T06:28:27;94881.13;;;11.78;100.00
6694;BME280;3384;42.628;23.380;2022-11-02T06:30:56;94884.09;;;11.76;100.00
6694;BME280;3384;42.628;23.380;2022-11-02T06:33:23;94896.34;;;11.82;100.00
6694;BME280;3384;42.628;23.380;2022-11-02T06:35:51;94892.16;;;12.08;100.00
6694;BME280;3384;42.628;23.380;2022-11-02T06:38:19;94888.34;;;12.28;100.00
6694;BME280;3384;42.628;23.380;2022-11-02T06:40:54;94894.03;;;12.08;100.00
6694;BME280;3384;42.628;23.380;2022-11-02T06:43:22;94898.63;;;12.39;100.00
6694;BME280;3384;42.628;23.380;2022-11-02T06:45:49;94890.16;;;12.46;100.00
6694;BME280;3384;42.628;23.380;2022-11-02T06:48:17;94901.31;;;12.53;100.00
6694;BME280;3384;42.628;23.380;2022-11-02T06:50:44;94889.25;;;12.37;100.00
6694;BME280;3384;42.628;23.380;2022-11-02T06:53:10;94889.84;;;12.34;100.00
6694;BME280;3384;42.628;23.380;2022-11-02T06:55:37;94881.38;;;12.40;100.00
6694;BME280;3384;42.628;23.380;2022-11-02T06:58:04;94886.69;;;12.59;100.00
6694;BME280;3384;42.628;23.380;2022-11-02T07:00:31;94881.50;;;12.49;100.00
6694;BME280;3384;42.628;23.380;2022-11-02T07:02:58;94879.34;;;12.64;100.00
6694;BME280;3384;42.628;23.380;2022-11-02T07:05:27;94881.06;;;12.74;100.00
6694;BME280;3384;42.628;23.380;2022-11-02T07:07:54;94879.84;;;12.93;100.00
6694;BME280;3384;42.628;23.380;2022-11-02T07:10:21;94888.53;;;12.90;100.00
6694;BME280;3384;42.628;23.380;2022-11-02T07:12:51;94878.94;;;12.98;100.00
6694;BME280;3384;42.628;23.380;2022-11-02T07:15:19;94892.00;;;13.18;100.00
6694;BME280;3384;42.628;23.380;2022-11-02T07:17:46;94879.06;;;13.20;100.00
6694;BME280;3384;42.628;23.380;2022-11-02T07:20:13;94876.16;;;13.30;100.00
6694;BME280;3384;42.628;23.380;2022-11-02T07:22:42;94880.41;;;13.44;100.00
6694;BME280;3384;42.628;23.380;2022-11-02T07:25:17;94875.47;;;13.60;100.00
6694;BME280;3384;42.628;23.380;2022-11-02T07:27:43;94879.47;;;13.62;100.00
6694;BME280;3384;42.628;23.380;2022-11-02T07:30:10;94877.88;;;13.61;100.00
6694;BME280;3384;42.628;23.380;2022-11-02T07:32:38;94877.94;;;13.70;100.00
6694;BME280;3384;42.628;23.380;2022-11-02T07:35:06;94879.50;;;13.84;100.00
6694;BME280;3384;42.628;23.380;2022-11-02T07:37:33;94878.88;;;13.88;100.00
6694;BME280;3384;42.628;23.380;2022-11-02T07:40:03;94880.09;;;14.04;100.00
6694;BME280;3384;42.628;23.380;2022-11-02T07:42:31;94863.31;;;14.07;100.00
6694;BME280;3384;42.628;23.380;2022-11-02T07:44:57;94872.81;;;14.04;100.00
6694;BME280;3384;42.628;23.380;2022-11-02T07:47:25;94869.53;;;14.07;100.00
6694;BME280;3384;42.628;23.380;2022-11-02T07:49:52;94873.56;;;14.18;100.00
6694;BME280;3384;42.628;23.380;2022-11-02T07:52:18;94868.47;;;14.17;100.00
6694;BME280;3384;42.628;23.380;2022-11-02T07:54:45;94874.25;;;14.24;100.00
6694;BME280;3384;42.628;23.380;2022-11-02T07:57:14;94869.56;;;14.38;100.00
6694;BME280;3384;42.628;23.380;2022-11-02T07:59:40;94863.31;;;14.51;99.16
6694;BME280;3384;42.628;23.380;2022-11-02T08:02:09;94864.44;;;14.50;99.23
6694;BME280;3384;42.628;23.380;2022-11-02T08:04:38;94864.38;;;14.72;97.46
6694;BME280;3384;42.628;23.380;2022-11-02T08:07:05;94856.13;;;14.68;97.43
6694;BME280;3384;42.628;23.380;2022-11-02T08:09:32;94854.06;;;14.74;98.03
6694;BME280;3384;42.628;23.380;2022-11-02T08:11:58;94856.19;;;14.85;95.52
6694;BME280;3384;42.628;23.380;2022-11-02T08:14:26;94855.69;;;14.83;95.63
6694;BME280;3384;42.628;23.380;2022-11-02T08:16:53;94855.44;;;15.02;94.46
6694;BME280;3384;42.628;23.380;2022-11-02T08:19:20;94843.84;;;15.10;92.98
6694;BME280;3384;42.628;23.380;2022-11-02T08:21:47;94844.75;;;15.36;91.37
6694;BME280;3384;42.628;23.380;2022-11-02T08:24:13;94841.19;;;15.27;91.56
6694;BME280;3384;42.628;23.380;2022-11-02T08:26:40;94843.09;;;15.26;92.47
6694;BME280;3384;42.628;23.380;2022-11-02T08:29:07;94834.41;;;15.38;91.96
6694;BME280;3384;42.628;23.380;2022-11-02T08:31:35;94835.56;;;15.54;90.22
6694;BME280;3384;42.628;23.380;2022-11-02T08:34:02;94843.34;;;15.47;90.10
6694;BME280;3384;42.628;23.380;2022-11-02T08:36:28;94843.66;;;15.71;87.08
6694;BME280;3384;42.628;23.380;2022-11-02T08:38:55;94828.56;;;15.61;88.17
6694;BME280;3384;42.628;23.380;2022-11-02T08:41:22;94826.81;;;15.82;87.95
6694;BME280;3384;42.628;23.380;2022-11-02T08:43:48;94831.41;;;16.07;86.19
6694;BME280;3384;42.628;23.380;2022-11-02T08:46:15;94834.72;;;16.30;84.09
6694;BME280;3384;42.628;23.380;2022-11-02T08:48:43;94821.22;;;16.13;84.39
6694;BME280;3384;42.628;23.380;2022-11-02T08:51:10;94833.16;;;16.20;84.69
6694;BME280;3384;42.628;23.380;2022-11-02T08:53:37;94826.13;;;16.11;84.96
6694;BME280;3384;42.628;23.380;2022-11-02T08:56:04;94817.81;;;16.50;82.47
6694;BME280;3384;42.628;23.380;2022-11-02T08:58:31;94818.78;;;16.46;82.52
6694;BME280;3384;42.628;23.380;2022-11-02T09:00:57;94826.22;;;16.66;81.22
6694;BME280;3384;42.628;23.380;2022-11-02T09:03:24;94811.97;;;16.77;80.62
6694;BME280;3384;42.628;23.380;2022-11-02T09:05:57;94816.16;;;16.66;81.03
6694;BME280;3384;42.628;23.380;2022-11-02T09:08:24;94819.59;;;16.84;79.87
6694;BME280;3384;42.628;23.380;2022-11-02T09:10:52;94814.34;;;17.16;77.53
6694;BME280;3384;42.628;23.380;2022-11-02T09:13:22;94795.81;;;17.18;76.85
6694;BME280;3384;42.628;23.380;2022-11-02T09:15:53;94804.81;;;17.31;76.18
6694;BME280;3384;42.628;23.380;2022-11-02T09:18:20;94813.75;;;17.31;76.67
6694;BME280;3384;42.628;23.380;2022-11-02T09:20:48;94803.50;;;17.45;75.04
6694;BME280;3384;42.628;23.380;2022-11-02T09:23:17;94804.69;;;17.56;74.65
6694;BME280;3384;42.628;23.380;2022-11-02T09:25:45;94796.47;;;17.65;74.37
6694;BME280;3384;42.628;23.380;2022-11-02T09:28:12;94802.63;;;17.53;76.08
6694;BME280;3384;42.628;23.380;2022-11-02T09:30:40;94805.03;;;17.75;75.54
6694;BME280;3384;42.628;23.380;2022-11-02T09:33:07;94794.84;;;17.72;75.36
6694;BME280;3384;42.628;23.380;2022-11-02T09:35:36;94788.22;;;17.82;75.20
6694;BME280;3384;42.628;23.380;2022-11-02T09:38:03;94782.53;;;17.95;74.34
6694;BME280;3384;42.628;23.380;2022-11-02T09:40:37;94781.91;;;17.90;72.97
6694;BME280;3384;42.628;23.380;2022-11-02T09:43:11;94783.19;;;17.92;73.41
6694;BME280;3384;42.628;23.380;2022-11-02T09:45:52;94779.38;;;18.05;73.25
6694;BME280;3384;42.628;23.380;2022-11-02T09:48:25;94768.81;;;18.24;72.50
6694;BME280;3384;42.628;23.380;2022-11-02T09:50:55;94771.06;;;18.22;73.16
6694;BME280;3384;42.628;23.380;2022-11-02T09:53:30;94761.34;;;18.33;73.35
6694;BME280;3384;42.628;23.380;2022-11-02T09:56:03;94769.78;;;18.40;72.28
6694;BME280;3384;42.628;23.380;2022-11-02T09:58:34;94766.78;;;18.33;72.41
6694;BME280;3384;42.628;23.380;2022-11-02T10:01:10;94762.22;;;18.46;71.92
6694;BME280;3384;42.628;23.380;2022-11-02T10:03:47;94767.47;;;18.30;72.20
6694;BME280;3384;42.628;23.380;2022-11-02T10:06:19;94753.63;;;18.56;71.00
6694;BME280;3384;42.628;23.380;2022-11-02T10:08:50;94742.41;;;18.57;70.97
6694;BME280;3384;42.628;23.380;2022-11-02T10:11:35;94741.41;;;18.62;70.77
6694;BME280;3384;42.628;23.380;2022-11-02T10:14:08;94745.16;;;18.69;70.36
6694;BME280;3384;42.628;23.380;2022-11-02T10:16:41;94740.16;;;18.71;69.90
6694;BME280;3384;42.628;23.380;2022-11-02T10:19:13;94731.34;;;18.86;69.40
6694;BME280;3384;42.628;23.380;2022-11-02T10:21:43;94723.41;;;18.81;69.52
6694;BME280;3384;42.628;23.380;2022-11-02T10:24:21;94726.03;;;19.02;68.22
6694;BME280;3384;42.628;23.380;2022-11-02T10:26:52;94728.84;;;19.18;68.15
6694;BME280;3384;42.628;23.380;2022-11-02T10:29:29;94724.88;;;19.27;67.77
6694;BME280;3384;42.628;23.380;2022-11-02T10:32:01;94718.19;;;19.25;67.75
6694;BME280;3384;42.628;23.380;2022-11-02T10:34:29;94708.09;;;19.37;67.53
6694;BME280;3384;42.628;23.380;2022-11-02T10:37:09;94701.16;;;19.40;67.00
6694;BME280;3384;42.628;23.380;2022-11-02T10:39:46;94706.34;;;19.57;65.98
6694;BME280;3384;42.628;23.380;2022-11-02T10:42:39;94706.19;;;19.65;64.56
6694;BME280;3384;42.628;23.380;2022-11-02T10:45:25;94704.75;;;19.83;63.43
6694;BME280;3384;42.628;23.380;2022-11-02T10:48:02;94695.44;;;19.84;63.21
6694;BME280;3384;42.628;23.380;2022-11-02T10:50:46;94687.75;;;20.02;62.22
6694;BME280;3384;42.628;23.380;2022-11-02T10:53:14;94688.16;;;20.16;60.16
6694;BME280;3384;42.628;23.380;2022-11-02T10:55:52;94692.81;;;20.31;59.92
6694;BME280;3384;42.628;23.380;2022-11-02T10:58:26;94690.56;;;20.48;58.61
6694;BME280;3384;42.628;23.380;2022-11-02T11:01:03;94677.81;;;20.68;58.21
6694;BME280;3384;42.628;23.380;2022-11-02T11:03:31;94671.13;;;20.65;58.58
6694;BME280;3384;42.628;23.380;2022-11-02T11:05:59;94676.03;;;20.75;58.17
6694;BME280;3384;42.628;23.380;2022-11-02T11:08:46;94672.25;;;20.80;57.03
6694;BME280;3384;42.628;23.380;2022-11-02T11:11:21;94676.28;;;20.86;56.47
6694;BME280;3384;42.628;23.380;2022-11-02T11:14:01;94664.50;;;20.82;56.60
6694;BME280;3384;42.628;23.380;2022-11-02T11:16:35;94662.59;;;20.98;56.17
6694;BME280;3384;42.628;23.380;2022-11-02T11:19:04;94658.81;;;21.02;55.54
6694;BME280;3384;42.628;23.380;2022-11-02T11:21:37;94659.22;;;21.04;55.21
6694;BME280;3384;42.628;23.380;2022-11-02T11:24:19;94653.56;;;21.13;55.16
6694;BME280;3384;42.628;23.380;2022-11-02T11:26:59;94651.66;;;21.32;54.20
6694;BME280;3384;42.628;23.380;2022-11-02T11:29:29;94650.38;;;21.45;54.15
6694;BME280;3384;42.628;23.380;2022-11-02T11:31:56;94645.91;;;21.56;52.49
6694;BME280;3384;42.628;23.380;2022-11-02T11:34:25;94643.97;;;21.76;51.47
6694;BME280;3384;42.628;23.380;2022-11-02T11:37:03;94646.91;;;21.67;51.09
6694;BME280;3384;42.628;23.380;2022-11-02T11:39:31;94645.13;;;21.94;47.63
6694;BME280;3384;42.628;23.380;2022-11-02T11:42:01;94635.91;;;22.02;47.13
6694;BME280;3384;42.628;23.380;2022-11-02T11:44:30;94625.97;;;22.13;46.80
6694;BME280;3384;42.628;23.380;2022-11-02T11:46:58;94649.09;;;22.19;46.07
6694;BME280;3384;42.628;23.380;2022-11-02T11:49:28;94620.88;;;22.34;44.97
6694;BME280;3384;42.628;23.380;2022-11-02T11:51:57;94629.13;;;22.38;43.72
6694;BME280;3384;42.628;23.380;2022-11-02T11:54:26;94627.16;;;22.38;42.24
6694;BME280;3384;42.628;23.380;2022-11-02T11:56:54;94608.31;;;22.52;42.21
6694;BME280;3384;42.628;23.380;2022-11-02T11:59:44;94620.03;;;22.53;41.52
6694;BME280;3384;42.628;23.380;2022-11-02T12:02:20;94613.97;;;22.66;41.32
6694;BME280;3384;42.628;23.380;2022-11-02T12:04:48;94607.91;;;22.50;41.00
6694;BME280;3384;42.628;23.380;2022-11-02T12:07:28;94625.34;;;22.46;41.26
6694;BME280;3384;42.628;23.380;2022-11-02T12:10:08;94595.22;;;22.65;40.66
6694;BME280;3384;42.628;23.380;2022-11-02T12:12:44;94604.69;;;22.71;40.19
6694;BME280;3384;42.628;23.380;2022-11-02T12:15:26;94591.28;;;22.88;39.81
6694;BME280;3384;42.628;23.380;2022-11-02T12:18:08;94594.66;;;22.78;40.08
6694;BME280;3384;42.628;23.380;2022-11-02T12:20:49;94584.13;;;22.80;40.25
6694;BME280;3384;42.628;23.380;2022-11-02T12:23:39;94579.53;;;22.58;40.48
6694;BME280;3384;42.628;23.380;2022-11-02T12:26:19;94581.78;;;22.53;40.34
6694;BME280;3384;42.628;23.380;2022-11-02T12:29:05;94579.38;;;22.74;39.93
6694;BME280;3384;42.628;23.380;2022-11-02T12:31:39;94578.31;;;22.56;40.36
6694;BME280;3384;42.628;23.380;2022-11-02T12:34:29;94567.06;;;22.61;40.21
6694;BME280;3384;42.628;23.380;2022-11-02T12:37:06;94581.84;;;22.82;39.73
6694;BME280;3384;42.628;23.380;2022-11-02T12:40:01;94575.25;;;22.87;40.01
6694;BME280;3384;42.628;23.380;2022-11-02T12:42:34;94572.00;;;22.78;40.23
6694;BME280;3384;42.628;23.380;2022-11-02T12:45:17;94562.94;;;22.70;40.38
6694;BME280;3384;42.628;23.380;2022-11-02T12:47:54;94564.25;;;22.83;40.36
6694;BME280;3384;42.628;23.380;2022-11-02T12:50:30;94553.13;;;22.95;40.25
6694;BME280;3384;42.628;23.380;2022-11-02T12:53:14;94558.44;;;22.85;40.68
6694;BME280;3384;42.628;23.380;2022-11-02T12:55:49;94555.47;;;22.67;40.85
6694;BME280;3384;42.628;23.380;2022-11-02T12:58:20;94550.41;;;22.69;41.00
6694;BME280;3384;42.628;23.380;2022-11-02T13:00:52;94556.22;;;22.68;40.80
6694;BME280;3384;42.628;23.380;2022-11-02T13:03:29;94549.03;;;22.56;40.68
6694;BME280;3384;42.628;23.380;2022-11-02T13:06:01;94549.94;;;22.64;40.68
6694;BME280;3384;42.628;23.380;2022-11-02T13:08:35;94554.59;;;22.89;40.28
6694;BME280;3384;42.628;23.380;2022-11-02T13:11:08;94549.47;;;22.84;40.68
6694;BME280;3384;42.628;23.380;2022-11-02T13:13:40;94550.09;;;22.74;40.94
6694;BME280;3384;42.628;23.380;2022-11-02T13:16:09;94544.25;;;22.76;40.79
6694;BME280;3384;42.628;23.380;2022-11-02T13:18:42;94542.00;;;22.81;40.91
6694;BME280;3384;42.628;23.380;2022-11-02T13:21:11;94546.28;;;22.82;40.44
6694;BME280;3384;42.628;23.380;2022-11-02T13:23:43;94553.66;;;22.78;40.58
6694;BME280;3384;42.628;23.380;2022-11-02T13:26:14;94546.03;;;22.91;39.85